sensor_id;sensor_type;location;lat;lon;timestamp;pressure;altitude;pressure_sealevel;temperature;humidity
54042;BME280;41156;51.508;5.406;2023-12-20T00:00:36;101521.31;;;5.81;100.00
54042;BME280;41156;51.508;5.406;2023-12-20T00:03:37;101515.13;;;5.72;100.00
54042;BME280;41156;51.508;5.406;2023-12-20T00:06:37;101526.84;;;5.63;100.00
54042;BME280;41156;51.508;5.406;2023-12-20T00:09:38;101527.50;;;5.56;100.00
54042;BME280;41156;51.508;5.406;2023-12-20T00:12:38;101528.84;;;5.52;100.00
54042;BME280;41156;51.508;5.406;2023-12-20T00:15:38;101526.47;;;5.41;100.00
54042;BME280;41156;51.508;5.406;2023-12-20T00:18:39;101536.34;;;5.41;100.00
54042;BME280;41156;51.508;5.406;2023-12-20T00:21:39;101537.91;;;5.51;100.00
54042;BME280;41156;51.508;5.406;2023-12-20T00:24:39;101535.06;;;5.53;100.00
54042;BME280;41156;51.508;5.406;2023-12-20T00:27:40;101531.69;;;5.51;100.00
54042;BME280;41156;51.508;5.406;2023-12-20T00:30:40;101524.66;;;5.50;100.00
54042;BME280;41156;51.508;5.406;2023-12-20T00:33:40;101526.63;;;5.48;100.00
54042;BME280;41156;51.508;5.406;2023-12-20T00:36:43;101519.41;;;5.32;100.00
54042;BME280;41156;51.508;5.406;2023-12-20T00:39:43;101522.22;;;5.22;100.00
54042;BME280;41156;51.508;5.406;2023-12-20T00:42:44;101516.53;;;5.17;100.00
54042;BME280;41156;51.508;5.406;2023-12-20T00:45:44;101511.97;;;5.09;100.00
54042;BME280;41156;51.508;5.406;2023-12-20T00:48:45;101504.13;;;5.16;100.00
54042;BME280;41156;51.508;5.406;2023-12-20T00:51:45;101508.16;;;5.20;100.00
54042;BME280;41156;51.508;5.406;2023-12-20T00:54:47;101515.16;;;5.05;100.00
54042;BME280;41156;51.508;5.406;2023-12-20T00:57:47;101512.13;;;5.08;100.00
54042;BME280;41156;51.508;5.406;2023-12-20T01:00:47;101497.06;;;5.07;100.00
54042;BME280;41156;51.508;5.406;2023-12-20T01:03:47;101503.59;;;5.04;100.00
54042;BME280;41156;51.508;5.406;2023-12-20T01:06:48;101514.78;;;4.91;100.00
54042;BME280;41156;51.508;5.406;2023-12-20T01:09:48;101505.53;;;4.86;100.00
54042;BME280;41156;51.508;5.406;2023-12-20T01:12:49;101516.91;;;4.88;100.00
54042;BME280;41156;51.508;5.406;2023-12-20T01:15:49;101524.16;;;4.95;100.00
54042;BME280;41156;51.508;5.406;2023-12-20T01:18:49;101518.03;;;5.11;100.00
54042;BME280;41156;51.508;5.406;2023-12-20T01:21:49;101520.00;;;5.09;100.00
54042;BME280;41156;51.508;5.406;2023-12-20T01:24:50;101519.34;;;5.07;100.00
54042;BME280;41156;51.508;5.406;2023-12-20T01:27:51;101520.13;;;4.99;100.00
54042;BME280;41156;51.508;5.406;2023-12-20T01:30:51;101524.69;;;5.07;100.00
54042;BME280;41156;51.508;5.406;2023-12-20T01:33:51;101523.88;;;5.07;100.00
54042;BME280;41156;51.508;5.406;2023-12-20T01:36:52;101532.56;;;5.09;100.00
54042;BME280;41156;51.508;5.406;2023-12-20T01:39:52;101523.72;;;5.16;100.00
54042;BME280;41156;51.508;5.406;2023-12-20T01:43:08;101519.75;;;5.29;100.00
54042;BME280;41156;51.508;5.406;2023-12-20T01:46:08;101521.72;;;5.18;100.00
54042;BME280;41156;51.508;5.406;2023-12-20T01:49:09;101521.03;;;5.08;100.00
54042;BME280;41156;51.508;5.406;2023-12-20T01:52:09;101522.69;;;5.09;100.00
54042;BME280;41156;51.508;5.406;2023-12-20T01:55:10;101522.56;;;5.19;100.00
54042;BME280;41156;51.508;5.406;2023-12-20T01:58:15;101522.38;;;5.12;100.00
54042;BME280;41156;51.508;5.406;2023-12-20T02:01:16;101524.38;;;5.10;100.00
54042;BME280;41156;51.508;5.406;2023-12-20T02:04:16;101518.50;;;5.07;100.00
54042;BME280;41156;51.508;5.406;2023-12-20T02:07:18;101511.25;;;4.99;100.00
54042;BME280;41156;51.508;5.406;2023-12-20T02:10:18;101519.44;;;4.89;100.00
54042;BME280;41156;51.508;5.406;2023-12-20T02:13:18;101531.34;;;4.95;100.00
54042;BME280;41156;51.508;5.406;2023-12-20T02:16:19;101526.63;;;4.89;100.00
54042;BME280;41156;51.508;5.406;2023-12-20T02:19:19;101525.88;;;5.05;100.00
54042;BME280;41156;51.508;5.406;2023-12-20T02:22:20;101523.00;;;5.06;100.00
54042;BME280;41156;51.508;5.406;2023-12-20T02:25:20;101521.16;;;4.98;100.00
54042;BME280;41156;51.508;5.406;2023-12-20T02:28:21;101523.63;;;4.92;100.00
54042;BME280;41156;51.508;5.406;2023-12-20T02:31:23;101508.94;;;5.04;100.00
54042;BME280;41156;51.508;5.406;2023-12-20T02:34:23;101505.09;;;4.98;100.00
54042;BME280;41156;51.508;5.406;2023-12-20T02:37:23;101513.13;;;4.98;100.00
54042;BME280;41156;51.508;5.406;2023-12-20T02:40:24;101520.97;;;4.92;100.00
54042;BME280;41156;51.508;5.406;2023-12-20T02:43:24;101518.56;;;4.80;100.00
54042;BME280;41156;51.508;5.406;2023-12-20T02:46:24;101522.09;;;4.89;100.00
54042;BME280;41156;51.508;5.406;2023-12-20T02:49:25;101516.56;;;4.82;100.00
54042;BME280;41156;51.508;5.406;2023-12-20T02:52:25;101513.84;;;4.74;100.00
54042;BME280;41156;51.508;5.406;2023-12-20T02:55:26;101517.53;;;4.73;100.00
54042;BME280;41156;51.508;5.406;2023-12-20T02:58:26;101511.31;;;4.73;100.00
54042;BME280;41156;51.508;5.406;2023-12-20T03:01:27;101514.16;;;4.71;100.00
54042;BME280;41156;51.508;5.406;2023-12-20T03:04:28;101513.31;;;4.71;100.00
54042;BME280;41156;51.508;5.406;2023-12-20T03:07:28;101509.47;;;4.65;100.00
54042;BME280;41156;51.508;5.406;2023-12-20T03:10:28;101506.88;;;4.55;100.00
54042;BME280;41156;51.508;5.406;2023-12-20T03:13:29;101510.88;;;4.51;100.00
54042;BME280;41156;51.508;5.406;2023-12-20T03:16:29;101497.97;;;4.47;100.00
54042;BME280;41156;51.508;5.406;2023-12-20T03:19:31;101497.81;;;4.48;100.00
54042;BME280;41156;51.508;5.406;2023-12-20T03:22:31;101497.13;;;4.46;100.00
54042;BME280;41156;51.508;5.406;2023-12-20T03:25:31;101490.25;;;4.43;100.00
54042;BME280;41156;51.508;5.406;2023-12-20T03:28:32;101495.78;;;4.42;100.00
54042;BME280;41156;51.508;5.406;2023-12-20T03:31:32;101486.91;;;4.41;100.00
54042;BME280;41156;51.508;5.406;2023-12-20T03:34:32;101484.25;;;4.41;100.00
54042;BME280;41156;51.508;5.406;2023-12-20T03:37:32;101479.41;;;4.45;100.00
54042;BME280;41156;51.508;5.406;2023-12-20T03:40:33;101482.81;;;4.55;100.00
54042;BME280;41156;51.508;5.406;2023-12-20T03:43:33;101483.00;;;4.62;100.00
54042;BME280;41156;51.508;5.406;2023-12-20T03:46:33;101488.03;;;4.65;100.00
54042;BME280;41156;51.508;5.406;2023-12-20T03:49:34;101477.69;;;4.70;100.00
54042;BME280;41156;51.508;5.406;2023-12-20T03:52:37;101483.72;;;4.72;100.00
54042;BME280;41156;51.508;5.406;2023-12-20T03:55:37;101488.94;;;4.82;100.00
54042;BME280;41156;51.508;5.406;2023-12-20T03:58:37;101489.47;;;4.86;100.00
54042;BME280;41156;51.508;5.406;2023-12-20T04:01:37;101490.81;;;4.90;100.00
54042;BME280;41156;51.508;5.406;2023-12-20T04:04:38;101480.13;;;5.06;100.00
54042;BME280;41156;51.508;5.406;2023-12-20T04:07:38;101490.88;;;5.14;100.00
54042;BME280;41156;51.508;5.406;2023-12-20T04:10:39;101481.91;;;5.32;100.00
54042;BME280;41156;51.508;5.406;2023-12-20T04:13:39;101485.59;;;5.39;100.00
54042;BME280;41156;51.508;5.406;2023-12-20T04:16:39;101484.09;;;5.45;100.00
54042;BME280;41156;51.508;5.406;2023-12-20T04:19:40;101495.31;;;5.48;100.00
54042;BME280;41156;51.508;5.406;2023-12-20T04:22:40;101491.28;;;5.52;100.00
54042;BME280;41156;51.508;5.406;2023-12-20T04:25:40;101492.34;;;5.60;100.00
54042;BME280;41156;51.508;5.406;2023-12-20T04:28:40;101484.97;;;5.62;100.00
54042;BME280;41156;51.508;5.406;2023-12-20T04:31:41;101489.81;;;5.58;100.00
54042;BME280;41156;51.508;5.406;2023-12-20T04:34:41;101499.69;;;5.57;100.00
54042;BME280;41156;51.508;5.406;2023-12-20T04:37:41;101496.00;;;5.59;100.00
54042;BME280;41156;51.508;5.406;2023-12-20T04:40:42;101482.28;;;5.70;100.00
54042;BME280;41156;51.508;5.406;2023-12-20T04:43:42;101486.94;;;5.68;100.00
54042;BME280;41156;51.508;5.406;2023-12-20T04:46:42;101486.63;;;5.71;100.00
54042;BME280;41156;51.508;5.406;2023-12-20T04:49:43;101482.78;;;5.73;100.00
54042;BME280;41156;51.508;5.406;2023-12-20T04:52:43;101488.97;;;5.74;100.00
54042;BME280;41156;51.508;5.406;2023-12-20T04:55:43;101490.50;;;5.77;100.00
54042;BME280;41156;51.508;5.406;2023-12-20T04:58:44;101493.19;;;5.77;100.00
54042;BME280;41156;51.508;5.406;2023-12-20T05:01:44;101497.34;;;5.79;100.00
54042;BME280;41156;51.508;5.406;2023-12-20T05:04:44;101487.47;;;5.80;100.00
54042;BME280;41156;51.508;5.406;2023-12-20T05:07:45;101482.44;;;5.77;100.00
54042;BME280;41156;51.508;5.406;2023-12-20T05:10:45;101478.91;;;5.76;100.00
54042;BME280;41156;51.508;5.406;2023-12-20T05:13:45;101480.59;;;5.77;100.00
54042;BME280;41156;51.508;5.406;2023-12-20T05:16:46;101473.22;;;5.79;100.00
54042;BME280;41156;51.508;5.406;2023-12-20T05:19:46;101473.91;;;5.81;100.00
54042;BME280;41156;51.508;5.406;2023-12-20T05:22:46;101472.88;;;5.82;100.00
54042;BME280;41156;51.508;5.406;2023-12-20T05:25:47;101471.56;;;5.95;100.00
54042;BME280;41156;51.508;5.406;2023-12-20T05:28:47;101477.63;;;5.97;100.00
54042;BME280;41156;51.508;5.406;2023-12-20T05:31:48;101485.50;;;5.98;100.00
54042;BME280;41156;51.508;5.406;2023-12-20T05:34:48;101479.06;;;5.91;100.00
54042;BME280;41156;51.508;5.406;2023-12-20T05:37:49;101479.59;;;5.86;100.00
54042;BME280;41156;51.508;5.406;2023-12-20T05:40:49;101477.09;;;5.85;100.00
54042;BME280;41156;51.508;5.406;2023-12-20T05:43:50;101475.56;;;5.90;100.00
54042;BME280;41156;51.508;5.406;2023-12-20T05:46:50;101477.25;;;5.83;100.00
54042;BME280;41156;51.508;5.406;2023-12-20T05:49:51;101480.44;;;5.79;100.00
54042;BME280;41156;51.508;5.406;2023-12-20T05:52:51;101489.84;;;5.74;100.00
54042;BME280;41156;51.508;5.406;2023-12-20T05:55:51;101479.25;;;5.65;100.00
54042;BME280;41156;51.508;5.406;2023-12-20T05:58:52;101493.81;;;5.54;100.00
54042;BME280;41156;51.508;5.406;2023-12-20T06:01:52;101497.66;;;5.43;100.00
54042;BME280;41156;51.508;5.406;2023-12-20T06:04:52;101507.34;;;5.36;100.00
54042;BME280;41156;51.508;5.406;2023-12-20T06:07:53;101502.66;;;5.30;100.00
54042;BME280;41156;51.508;5.406;2023-12-20T06:10:54;101507.69;;;5.25;100.00
54042;BME280;41156;51.508;5.406;2023-12-20T06:13:54;101501.31;;;5.26;100.00
54042;BME280;41156;51.508;5.406;2023-12-20T06:16:55;101504.00;;;5.34;100.00
54042;BME280;41156;51.508;5.406;2023-12-20T06:19:55;101500.00;;;5.30;100.00
54042;BME280;41156;51.508;5.406;2023-12-20T06:22:55;101496.63;;;5.28;100.00
54042;BME280;41156;51.508;5.406;2023-12-20T06:25:56;101507.31;;;5.28;100.00
54042;BME280;41156;51.508;5.406;2023-12-20T06:28:56;101499.97;;;5.22;100.00
54042;BME280;41156;51.508;5.406;2023-12-20T06:31:56;101502.94;;;5.10;100.00
54042;BME280;41156;51.508;5.406;2023-12-20T06:34:56;101498.53;;;5.01;100.00
54042;BME280;41156;51.508;5.406;2023-12-20T06:37:57;101496.22;;;4.98;100.00
54042;BME280;41156;51.508;5.406;2023-12-20T06:40:57;101500.34;;;4.92;100.00
54042;BME280;41156;51.508;5.406;2023-12-20T06:43:58;101494.00;;;4.93;100.00
54042;BME280;41156;51.508;5.406;2023-12-20T06:46:58;101492.34;;;5.00;100.00
54042;BME280;41156;51.508;5.406;2023-12-20T06:49:59;101495.53;;;5.04;100.00
54042;BME280;41156;51.508;5.406;2023-12-20T06:53:00;101495.72;;;5.11;100.00
54042;BME280;41156;51.508;5.406;2023-12-20T06:56:06;101491.75;;;5.15;100.00
54042;BME280;41156;51.508;5.406;2023-12-20T06:59:07;101492.25;;;5.18;100.00
54042;BME280;41156;51.508;5.406;2023-12-20T07:02:08;101492.91;;;5.21;100.00
54042;BME280;41156;51.508;5.406;2023-12-20T07:05:09;101498.78;;;5.24;100.00
54042;BME280;41156;51.508;5.406;2023-12-20T07:08:09;101491.59;;;5.25;100.00
54042;BME280;41156;51.508;5.406;2023-12-20T07:11:10;101492.09;;;5.20;100.00
54042;BME280;41156;51.508;5.406;2023-12-20T07:14:10;101486.72;;;5.20;100.00
54042;BME280;41156;51.508;5.406;2023-12-20T07:17:11;101488.56;;;5.19;100.00
54042;BME280;41156;51.508;5.406;2023-12-20T07:20:13;101480.88;;;5.16;100.00
54042;BME280;41156;51.508;5.406;2023-12-20T07:23:13;101491.75;;;5.15;100.00
54042;BME280;41156;51.508;5.406;2023-12-20T07:26:15;101486.22;;;5.16;100.00
54042;BME280;41156;51.508;5.406;2023-12-20T07:29:15;101491.75;;;5.23;100.00
54042;BME280;41156;51.508;5.406;2023-12-20T07:32:16;101497.94;;;5.24;100.00
54042;BME280;41156;51.508;5.406;2023-12-20T07:35:16;101486.75;;;5.28;100.00
54042;BME280;41156;51.508;5.406;2023-12-20T07:38:16;101495.63;;;5.29;100.00
54042;BME280;41156;51.508;5.406;2023-12-20T07:41:16;101482.88;;;5.31;100.00
54042;BME280;41156;51.508;5.406;2023-12-20T07:44:17;101478.22;;;5.33;100.00
54042;BME280;41156;51.508;5.406;2023-12-20T07:47:17;101486.59;;;5.30;100.00
54042;BME280;41156;51.508;5.406;2023-12-20T07:50:21;101475.00;;;5.29;100.00
54042;BME280;41156;51.508;5.406;2023-12-20T07:53:21;101481.56;;;5.35;100.00
54042;BME280;41156;51.508;5.406;2023-12-20T07:56:22;101480.06;;;5.41;100.00
54042;BME280;41156;51.508;5.406;2023-12-20T07:59:22;101484.25;;;5.35;100.00
54042;BME280;41156;51.508;5.406;2023-12-20T08:02:22;101484.91;;;5.37;100.00
54042;BME280;41156;51.508;5.406;2023-12-20T08:05:23;101490.94;;;5.39;100.00
54042;BME280;41156;51.508;5.406;2023-12-20T08:08:23;101499.66;;;5.41;100.00
54042;BME280;41156;51.508;5.406;2023-12-20T08:11:23;101505.56;;;5.45;100.00
54042;BME280;41156;51.508;5.406;2023-12-20T08:14:23;101504.53;;;5.46;100.00
54042;BME280;41156;51.508;5.406;2023-12-20T08:17:24;101499.00;;;5.47;100.00
54042;BME280;41156;51.508;5.406;2023-12-20T08:20:24;101495.19;;;5.58;100.00
54042;BME280;41156;51.508;5.406;2023-12-20T08:23:24;101496.69;;;5.69;100.00
54042;BME280;41156;51.508;5.406;2023-12-20T08:26:24;101506.41;;;5.78;100.00
54042;BME280;41156;51.508;5.406;2023-12-20T08:29:26;101505.06;;;5.82;100.00
54042;BME280;41156;51.508;5.406;2023-12-20T08:32:26;101509.28;;;5.85;100.00
54042;BME280;41156;51.508;5.406;2023-12-20T08:35:27;101510.94;;;5.86;100.00
54042;BME280;41156;51.508;5.406;2023-12-20T08:38:27;101508.75;;;5.89;100.00
54042;BME280;41156;51.508;5.406;2023-12-20T08:41:27;101520.53;;;5.97;100.00
54042;BME280;41156;51.508;5.406;2023-12-20T08:44:28;101502.91;;;6.02;100.00
54042;BME280;41156;51.508;5.406;2023-12-20T08:47:28;101497.38;;;6.04;100.00
54042;BME280;41156;51.508;5.406;2023-12-20T08:50:29;101491.84;;;6.05;100.00
54042;BME280;41156;51.508;5.406;2023-12-20T08:53:29;101478.09;;;6.08;100.00
54042;BME280;41156;51.508;5.406;2023-12-20T08:56:29;101479.97;;;6.08;100.00
54042;BME280;41156;51.508;5.406;2023-12-20T08:59:30;101478.94;;;6.09;100.00
54042;BME280;41156;51.508;5.406;2023-12-20T09:02:30;101474.56;;;6.16;100.00
54042;BME280;41156;51.508;5.406;2023-12-20T09:05:30;101480.78;;;6.17;100.00
54042;BME280;41156;51.508;5.406;2023-12-20T09:08:31;101486.66;;;6.12;100.00
54042;BME280;41156;51.508;5.406;2023-12-20T09:11:31;101484.28;;;6.09;100.00
54042;BME280;41156;51.508;5.406;2023-12-20T09:14:31;101483.63;;;6.07;100.00
54042;BME280;41156;51.508;5.406;2023-12-20T09:17:32;101480.13;;;6.06;100.00
54042;BME280;41156;51.508;5.406;2023-12-20T09:20:32;101484.63;;;6.06;100.00
54042;BME280;41156;51.508;5.406;2023-12-20T09:23:33;101479.25;;;6.06;100.00
54042;BME280;41156;51.508;5.406;2023-12-20T09:26:33;101491.34;;;6.10;100.00
54042;BME280;41156;51.508;5.406;2023-12-20T09:29:34;101486.97;;;6.09;100.00
54042;BME280;41156;51.508;5.406;2023-12-20T09:32:34;101496.06;;;6.08;100.00
54042;BME280;41156;51.508;5.406;2023-12-20T09:35:34;101489.50;;;6.10;100.00
54042;BME280;41156;51.508;5.406;2023-12-20T09:38:35;101484.78;;;6.13;100.00
54042;BME280;41156;51.508;5.406;2023-12-20T09:41:37;101481.78;;;6.16;100.00
54042;BME280;41156;51.508;5.406;2023-12-20T09:44:40;101476.25;;;6.17;100.00
54042;BME280;41156;51.508;5.406;2023-12-20T09:47:43;101472.22;;;6.21;100.00
54042;BME280;41156;51.508;5.406;2023-12-20T09:50:44;101473.72;;;6.24;100.00
54042;BME280;41156;51.508;5.406;2023-12-20T09:53:46;101475.22;;;6.26;100.00
54042;BME280;41156;51.508;5.406;2023-12-20T09:56:47;101474.69;;;6.31;100.00
54042;BME280;41156;51.508;5.406;2023-12-20T09:59:47;101479.22;;;6.30;100.00
54042;BME280;41156;51.508;5.406;2023-12-20T10:02:50;101484.25;;;6.34;100.00
54042;BME280;41156;51.508;5.406;2023-12-20T10:05:57;101481.06;;;6.38;100.00
54042;BME280;41156;51.508;5.406;2023-12-20T10:08:58;101482.38;;;6.42;100.00
54042;BME280;41156;51.508;5.406;2023-12-20T10:11:58;101485.56;;;6.46;100.00
54042;BME280;41156;51.508;5.406;2023-12-20T10:14:59;101476.34;;;6.48;100.00
54042;BME280;41156;51.508;5.406;2023-12-20T10:18:00;101467.09;;;6.51;100.00
54042;BME280;41156;51.508;5.406;2023-12-20T10:21:01;101454.00;;;6.56;100.00
54042;BME280;41156;51.508;5.406;2023-12-20T10:24:03;101464.19;;;6.61;100.00
54042;BME280;41156;51.508;5.406;2023-12-20T10:27:04;101466.06;;;6.60;100.00
54042;BME280;41156;51.508;5.406;2023-12-20T10:30:05;101464.50;;;6.66;100.00
54042;BME280;41156;51.508;5.406;2023-12-20T10:33:07;101470.75;;;6.66;100.00
54042;BME280;41156;51.508;5.406;2023-12-20T10:36:10;101473.72;;;6.80;100.00
54042;BME280;41156;51.508;5.406;2023-12-20T10:39:14;101464.78;;;6.79;100.00
54042;BME280;41156;51.508;5.406;2023-12-20T10:42:16;101465.34;;;6.75;100.00
54042;BME280;41156;51.508;5.406;2023-12-20T10:45:17;101465.28;;;6.91;100.00
54042;BME280;41156;51.508;5.406;2023-12-20T10:48:18;101456.41;;;6.82;100.00
54042;BME280;41156;51.508;5.406;2023-12-20T10:51:19;101443.78;;;6.91;100.00
54042;BME280;41156;51.508;5.406;2023-12-20T10:54:20;101443.81;;;6.83;100.00
54042;BME280;41156;51.508;5.406;2023-12-20T10:57:21;101448.16;;;6.84;100.00
54042;BME280;41156;51.508;5.406;2023-12-20T11:00:23;101450.03;;;6.83;100.00
54042;BME280;41156;51.508;5.406;2023-12-20T11:03:24;101434.56;;;6.85;100.00
54042;BME280;41156;51.508;5.406;2023-12-20T11:06:47;101422.97;;;6.85;100.00
54042;BME280;41156;51.508;5.406;2023-12-20T11:09:57;101427.28;;;6.94;100.00
54042;BME280;41156;51.508;5.406;2023-12-20T11:13:10;101428.63;;;6.98;100.00
54042;BME280;41156;51.508;5.406;2023-12-20T11:16:12;101420.59;;;6.90;100.00
54042;BME280;41156;51.508;5.406;2023-12-20T11:19:13;101424.38;;;7.04;100.00
54042;BME280;41156;51.508;5.406;2023-12-20T11:22:16;101423.75;;;6.94;100.00
54042;BME280;41156;51.508;5.406;2023-12-20T11:25:16;101426.97;;;6.89;100.00
54042;BME280;41156;51.508;5.406;2023-12-20T11:28:21;101422.97;;;6.85;100.00
54042;BME280;41156;51.508;5.406;2023-12-20T11:31:22;101424.16;;;6.82;100.00
54042;BME280;41156;51.508;5.406;2023-12-20T11:34:22;101421.00;;;6.79;100.00
54042;BME280;41156;51.508;5.406;2023-12-20T11:37:30;101411.44;;;6.76;100.00
54042;BME280;41156;51.508;5.406;2023-12-20T11:40:34;101414.47;;;6.73;100.00
54042;BME280;41156;51.508;5.406;2023-12-20T11:43:35;101404.44;;;6.67;100.00
54042;BME280;41156;51.508;5.406;2023-12-20T11:46:36;101406.94;;;6.69;100.00
54042;BME280;41156;51.508;5.406;2023-12-20T11:49:36;101392.84;;;6.66;100.00
54042;BME280;41156;51.508;5.406;2023-12-20T11:52:36;101404.09;;;6.70;100.00
54042;BME280;41156;51.508;5.406;2023-12-20T11:55:37;101396.34;;;6.75;100.00
54042;BME280;41156;51.508;5.406;2023-12-20T11:58:37;101393.47;;;6.77;100.00
54042;BME280;41156;51.508;5.406;2023-12-20T12:01:38;101398.03;;;6.76;100.00
54042;BME280;41156;51.508;5.406;2023-12-20T12:04:41;101384.41;;;6.78;100.00
54042;BME280;41156;51.508;5.406;2023-12-20T12:07:41;101383.09;;;6.74;100.00
54042;BME280;41156;51.508;5.406;2023-12-20T12:10:41;101369.00;;;6.72;100.00
54042;BME280;41156;51.508;5.406;2023-12-20T12:13:42;101375.19;;;6.72;100.00
54042;BME280;41156;51.508;5.406;2023-12-20T12:16:42;101375.03;;;6.74;100.00
54042;BME280;41156;51.508;5.406;2023-12-20T12:19:43;101370.47;;;6.74;100.00
54042;BME280;41156;51.508;5.406;2023-12-20T12:22:44;101379.22;;;6.76;100.00
54042;BME280;41156;51.508;5.406;2023-12-20T12:25:45;101370.31;;;6.76;100.00
54042;BME280;41156;51.508;5.406;2023-12-20T12:28:45;101371.16;;;6.76;100.00
54042;BME280;41156;51.508;5.406;2023-12-20T12:31:47;101370.97;;;6.78;100.00
54042;BME280;41156;51.508;5.406;2023-12-20T12:34:47;101369.59;;;6.82;100.00
54042;BME280;41156;51.508;5.406;2023-12-20T12:37:48;101361.84;;;6.87;100.00
54042;BME280;41156;51.508;5.406;2023-12-20T12:40:49;101360.28;;;6.93;100.00
54042;BME280;41156;51.508;5.406;2023-12-20T12:43:50;101352.72;;;6.96;100.00
54042;BME280;41156;51.508;5.406;2023-12-20T12:46:50;101342.63;;;6.98;100.00
54042;BME280;41156;51.508;5.406;2023-12-20T12:49:51;101346.63;;;7.02;100.00
54042;BME280;41156;51.508;5.406;2023-12-20T12:52:53;101341.06;;;7.04;100.00
54042;BME280;41156;51.508;5.406;2023-12-20T12:55:53;101337.38;;;7.05;100.00
54042;BME280;41156;51.508;5.406;2023-12-20T12:58:54;101333.69;;;7.06;100.00
54042;BME280;41156;51.508;5.406;2023-12-20T13:01:55;101336.16;;;7.08;100.00
54042;BME280;41156;51.508;5.406;2023-12-20T13:04:55;101338.84;;;7.08;100.00
54042;BME280;41156;51.508;5.406;2023-12-20T13:07:56;101329.97;;;7.07;100.00
54042;BME280;41156;51.508;5.406;2023-12-20T13:10:56;101320.25;;;7.06;100.00
54042;BME280;41156;51.508;5.406;2023-12-20T13:14:00;101314.19;;;7.04;100.00
54042;BME280;41156;51.508;5.406;2023-12-20T13:17:01;101318.56;;;7.05;100.00
54042;BME280;41156;51.508;5.406;2023-12-20T13:20:02;101312.19;;;7.06;100.00
54042;BME280;41156;51.508;5.406;2023-12-20T13:23:03;101313.38;;;7.03;100.00
54042;BME280;41156;51.508;5.406;2023-12-20T13:26:03;101302.81;;;7.02;100.00
54042;BME280;41156;51.508;5.406;2023-12-20T13:29:04;101287.69;;;7.01;100.00
54042;BME280;41156;51.508;5.406;2023-12-20T13:32:04;101281.41;;;7.09;100.00
54042;BME280;41156;51.508;5.406;2023-12-20T13:35:05;101275.03;;;7.10;100.00
54042;BME280;41156;51.508;5.406;2023-12-20T13:38:05;101261.41;;;7.11;100.00
54042;BME280;41156;51.508;5.406;2023-12-20T13:41:06;101257.88;;;7.11;100.00
54042;BME280;41156;51.508;5.406;2023-12-20T13:44:06;101247.59;;;7.14;100.00
54042;BME280;41156;51.508;5.406;2023-12-20T13:47:06;101267.25;;;7.15;100.00
54042;BME280;41156;51.508;5.406;2023-12-20T13:50:07;101269.59;;;7.18;100.00
54042;BME280;41156;51.508;5.406;2023-12-20T13:53:07;101266.22;;;7.16;100.00
54042;BME280;41156;51.508;5.406;2023-12-20T13:56:07;101257.50;;;7.14;100.00
54042;BME280;41156;51.508;5.406;2023-12-20T13:59:08;101250.78;;;7.18;100.00
54042;BME280;41156;51.508;5.406;2023-12-20T14:02:08;101249.19;;;7.23;100.00
54042;BME280;41156;51.508;5.406;2023-12-20T14:05:09;101254.09;;;7.20;100.00
54042;BME280;41156;51.508;5.406;2023-12-20T14:08:10;101251.06;;;7.23;100.00
54042;BME280;41156;51.508;5.406;2023-12-20T14:11:10;101247.16;;;7.26;100.00
54042;BME280;41156;51.508;5.406;2023-12-20T14:14:11;101245.88;;;7.21;100.00
54042;BME280;41156;51.508;5.406;2023-12-20T14:17:11;101249.56;;;7.20;100.00
54042;BME280;41156;51.508;5.406;2023-12-20T14:20:12;101250.59;;;7.19;100.00
54042;BME280;41156;51.508;5.406;2023-12-20T14:23:13;101247.91;;;7.19;100.00
54042;BME280;41156;51.508;5.406;2023-12-20T14:26:16;101248.72;;;7.20;100.00
54042;BME280;41156;51.508;5.406;2023-12-20T14:29:16;101249.75;;;7.19;100.00
54042;BME280;41156;51.508;5.406;2023-12-20T14:32:16;101258.44;;;7.21;100.00
54042;BME280;41156;51.508;5.406;2023-12-20T14:35:17;101263.81;;;7.21;100.00
54042;BME280;41156;51.508;5.406;2023-12-20T14:38:17;101250.38;;;7.21;100.00
54042;BME280;41156;51.508;5.406;2023-12-20T14:41:18;101245.69;;;7.23;100.00
54042;BME280;41156;51.508;5.406;2023-12-20T14:44:19;101240.31;;;7.23;100.00
54042;BME280;41156;51.508;5.406;2023-12-20T14:47:19;101245.69;;;7.23;100.00
54042;BME280;41156;51.508;5.406;2023-12-20T14:50:19;101259.13;;;7.23;100.00
54042;BME280;41156;51.508;5.406;2023-12-20T14:53:19;101258.09;;;7.24;100.00
54042;BME280;41156;51.508;5.406;2023-12-20T14:56:20;101265.31;;;7.23;100.00
54042;BME280;41156;51.508;5.406;2023-12-20T14:59:20;101269.69;;;7.25;100.00
54042;BME280;41156;51.508;5.406;2023-12-20T15:02:22;101268.66;;;7.26;100.00
54042;BME280;41156;51.508;5.406;2023-12-20T15:05:22;101259.59;;;7.27;100.00
54042;BME280;41156;51.508;5.406;2023-12-20T15:08:22;101261.63;;;7.25;100.00
54042;BME280;41156;51.508;5.406;2023-12-20T15:11:23;101258.44;;;7.21;100.00
54042;BME280;41156;51.508;5.406;2023-12-20T15:14:23;101247.06;;;7.19;100.00
54042;BME280;41156;51.508;5.406;2023-12-20T15:17:23;101256.44;;;7.23;100.00
54042;BME280;41156;51.508;5.406;2023-12-20T15:20:25;101261.25;;;7.28;100.00
54042;BME280;41156;51.508;5.406;2023-12-20T15:23:26;101239.38;;;7.31;100.00
54042;BME280;41156;51.508;5.406;2023-12-20T15:26:28;101240.88;;;7.33;100.00
54042;BME280;41156;51.508;5.406;2023-12-20T15:29:29;101239.84;;;7.34;100.00
54042;BME280;41156;51.508;5.406;2023-12-20T15:32:30;101239.84;;;7.34;100.00
54042;BME280;41156;51.508;5.406;2023-12-20T15:35:32;101244.75;;;7.31;100.00
54042;BME280;41156;51.508;5.406;2023-12-20T15:38:33;101238.53;;;7.30;100.00
54042;BME280;41156;51.508;5.406;2023-12-20T15:41:35;101243.56;;;7.33;100.00
54042;BME280;41156;51.508;5.406;2023-12-20T15:44:35;101239.66;;;7.36;100.00